createdAt,value
2022-08-17T00:00:42.684Z,63.87
2022-08-17T00:03:18.107Z,63.87
2022-08-17T00:05:48.536Z,63.89
2022-08-17T00:08:20.205Z,63.88
2022-08-17T00:10:50.331Z,63.90
2022-08-17T00:13:21.625Z,64.06
2022-08-17T00:15:51.729Z,64.18
2022-08-17T00:19:06.057Z,64.00
2022-08-17T00:21:10.829Z,64.22
2022-08-17T00:23:44.268Z,64.19
2022-08-17T00:26:34.891Z,64.42
2022-08-17T00:29:09.838Z,64.51
2022-08-17T00:31:49.374Z,64.46
2022-08-17T00:34:18.220Z,64.47
2022-08-17T00:36:46.568Z,64.42
2022-08-17T00:39:14.937Z,64.56
2022-08-17T00:41:43.485Z,64.61
2022-08-17T00:44:12.571Z,64.50
2022-08-17T00:46:43.146Z,64.36
2022-08-17T00:49:13.228Z,64.44
2022-08-17T00:51:50.966Z,64.35
2022-08-17T00:54:24.411Z,64.44
2022-08-17T00:57:16.074Z,64.50
2022-08-17T01:00:02.014Z,64.51
2022-08-17T01:02:42.391Z,64.56
2022-08-17T01:05:26.606Z,64.55
2022-08-17T01:07:57.776Z,64.58
2022-08-17T01:10:58.523Z,64.62
2022-08-17T01:13:39.770Z,64.70
2022-08-17T01:16:26.501Z,64.61
2022-08-17T01:18:59.677Z,64.73
2022-08-17T01:21:36.559Z,64.79
2022-08-17T01:24:05.396Z,64.60
2022-08-17T01:26:35.781Z,64.50
2022-08-17T01:29:05.736Z,64.39
2022-08-17T01:31:39.010Z,64.58
2022-08-17T01:34:10.946Z,64.63
2022-08-17T01:36:42.608Z,64.72
2022-08-17T01:39:21.735Z,64.90
2022-08-17T01:41:53.809Z,64.80
2022-08-17T01:44:24.219Z,64.86
2022-08-17T01:46:53.337Z,64.84
2022-08-17T01:49:21.876Z,64.89
2022-08-17T01:51:50.421Z,64.95
2022-08-17T01:54:20.985Z,65.07
2022-08-17T01:56:53.131Z,65.18
2022-08-17T01:59:21.555Z,65.18
2022-08-17T02:01:50.916Z,65.28
2022-08-17T02:04:19.236Z,65.46
2022-08-17T02:06:53.416Z,65.50
2022-08-17T02:09:25.897Z,65.27
2022-08-17T02:11:56.388Z,65.51
2022-08-17T02:14:26.323Z,65.50
2022-08-17T02:16:56.282Z,65.52
2022-08-17T02:19:24.777Z,65.30
2022-08-17T02:21:54.563Z,65.30
2022-08-17T02:24:59.469Z,65.30
2022-08-17T02:27:17.957Z,65.33
2022-08-17T02:29:46.406Z,65.32
2022-08-17T02:32:28.089Z,65.67
2022-08-17T02:34:58.346Z,65.37
2022-08-17T02:37:28.582Z,65.60
2022-08-17T02:39:58.671Z,65.55
2022-08-17T02:42:34.282Z,65.68
2022-08-17T02:45:05.546Z,65.49
2022-08-17T02:47:34.953Z,65.68
2022-08-17T02:50:05.874Z,65.59
2022-08-17T02:52:42.766Z,65.64
2022-08-17T02:55:20.806Z,65.42
2022-08-17T02:57:50.411Z,65.47
2022-08-17T03:00:22.956Z,65.62
2022-08-17T03:02:52.296Z,65.66
2022-08-17T03:05:24.282Z,65.60
2022-08-17T03:07:52.836Z,65.59
2022-08-17T03:10:24.913Z,65.60
2022-08-17T03:12:54.362Z,65.67
2022-08-17T03:15:31.165Z,65.73
2022-08-17T03:18:01.972Z,65.77
2022-08-17T03:20:32.568Z,65.56
2022-08-17T03:23:02.696Z,65.69
2022-08-17T03:25:37.913Z,65.67
2022-08-17T03:28:08.206Z,65.83
2022-08-17T03:30:37.015Z,65.77
2022-08-17T03:33:07.838Z,65.85
2022-08-17T03:35:40.573Z,65.75
2022-08-17T03:38:11.188Z,65.90
2022-08-17T03:40:57.975Z,65.89
2022-08-17T03:43:31.593Z,65.87
2022-08-17T03:46:27.103Z,65.88
2022-08-17T03:49:26.744Z,65.92
2022-08-17T03:52:16.107Z,65.81
2022-08-17T03:55:03.421Z,65.93
2022-08-17T03:57:32.577Z,65.92
2022-08-17T04:00:01.183Z,65.83
2022-08-17T04:02:33.132Z,65.88
2022-08-17T04:05:02.291Z,66.00
2022-08-17T04:07:31.860Z,66.00
2022-08-17T04:10:00.562Z,65.99
2022-08-17T04:12:31.931Z,66.04
2022-08-17T04:15:00.241Z,66.13
2022-08-17T04:17:29.725Z,66.11
2022-08-17T04:19:58.503Z,66.12
2022-08-17T04:22:33.039Z,66.13
2022-08-17T04:25:07.294Z,66.20
2022-08-17T04:27:36.159Z,66.31
2022-08-17T04:30:07.537Z,66.37
2022-08-17T04:33:00.440Z,66.22
2022-08-17T04:35:50.789Z,66.49
2022-08-17T04:38:22.044Z,66.51
2022-08-17T04:41:10.489Z,66.66
2022-08-17T04:43:40.882Z,66.65
2022-08-17T04:46:12.736Z,66.77
2022-08-17T04:48:46.854Z,66.99
2022-08-17T04:51:23.216Z,66.82
2022-08-17T04:53:54.997Z,66.92
2022-08-17T04:56:26.126Z,66.86
2022-08-17T04:58:57.912Z,66.79
2022-08-17T05:01:28.837Z,66.93
2022-08-17T05:03:59.727Z,66.80
2022-08-17T05:06:30.947Z,66.85
2022-08-17T05:08:59.624Z,66.83
2022-08-17T05:11:29.979Z,66.74
2022-08-17T05:13:59.890Z,66.46
2022-08-17T05:16:29.052Z,66.71
2022-08-17T05:18:59.481Z,67.05
2022-08-17T05:21:28.522Z,67.33
2022-08-17T05:23:59.051Z,68.20
2022-08-17T05:26:29.365Z,67.07
2022-08-17T05:29:02.527Z,66.27
2022-08-17T05:31:32.028Z,66.02
2022-08-17T05:34:00.396Z,67.37
2022-08-17T05:36:38.070Z,68.11
2022-08-17T05:39:16.151Z,66.69
2022-08-17T05:41:48.575Z,65.60
2022-08-17T05:44:17.257Z,64.95
2022-08-17T05:46:50.379Z,64.95
2022-08-17T05:49:27.352Z,65.18
2022-08-17T05:52:18.831Z,65.92
2022-08-17T05:55:07.326Z,64.84
2022-08-17T05:57:56.035Z,64.55
2022-08-17T06:00:51.143Z,65.26
2022-08-17T06:03:41.098Z,64.26
2022-08-17T06:06:17.636Z,63.84
2022-08-17T06:09:04.215Z,63.64
2022-08-17T06:11:32.797Z,62.87
2022-08-17T06:14:31.001Z,62.45
2022-08-17T06:17:04.915Z,62.24
2022-08-17T06:20:00.734Z,62.57
2022-08-17T06:22:42.534Z,62.19
2022-08-17T06:25:16.590Z,61.77
2022-08-17T06:27:55.902Z,61.40
2022-08-17T06:30:28.610Z,61.00
2022-08-17T06:33:23.024Z,61.06
2022-08-17T06:36:09.277Z,61.10
2022-08-17T06:38:53.820Z,60.91
2022-08-17T06:41:43.220Z,61.02
2022-08-17T06:44:42.128Z,60.94
2022-08-17T06:47:28.456Z,60.71
2022-08-17T06:50:03.544Z,60.69
2022-08-17T06:52:46.730Z,60.23
2022-08-17T06:58:33.501Z,60.07
2022-08-17T07:01:17.094Z,59.74
2022-08-17T07:04:05.164Z,58.80
2022-08-17T07:06:46.569Z,58.73
2022-08-17T07:09:41.224Z,59.09
2022-08-17T07:12:16.503Z,59.43
2022-08-17T07:14:57.551Z,59.29
2022-08-17T07:17:46.715Z,58.53
2022-08-17T07:20:22.889Z,58.59
2022-08-17T07:23:09.127Z,58.59
2022-08-17T07:25:37.475Z,58.36
2022-08-17T07:28:08.033Z,57.41
2022-08-17T07:30:50.416Z,57.36
2022-08-17T07:33:23.951Z,57.52
2022-08-17T07:35:53.060Z,57.75
2022-08-17T07:38:24.800Z,57.67
2022-08-17T07:41:05.416Z,57.47
2022-08-17T07:43:48.169Z,57.72
2022-08-17T07:46:54.920Z,57.80
2022-08-17T07:49:31.639Z,57.74
2022-08-17T07:52:48.145Z,57.29
2022-08-17T07:54:53.141Z,57.39
2022-08-17T07:57:26.648Z,57.13
2022-08-17T08:00:01.734Z,57.39
2022-08-17T08:02:35.771Z,57.26
2022-08-17T08:05:07.203Z,57.16
2022-08-17T08:07:55.167Z,57.27
2022-08-17T08:10:35.889Z,56.98
2022-08-17T08:13:12.290Z,56.61
2022-08-17T08:15:54.922Z,56.51
2022-08-17T08:18:38.605Z,56.34
2022-08-17T08:21:42.567Z,56.08
2022-08-17T08:24:22.620Z,55.63
2022-08-17T08:37:12.748Z,54.90
2022-08-17T08:40:39.567Z,54.42
2022-08-17T08:58:00.981Z,54.76
2022-08-17T08:58:05.959Z,54.73
2022-08-17T09:08:58.814Z,53.69
2022-08-17T09:12:56.551Z,52.53
2022-08-17T09:17:12.787Z,52.95
2022-08-17T09:49:28.227Z,49.03
2022-08-17T09:52:28.356Z,49.85
2022-08-17T09:55:00.410Z,49.97
2022-08-17T09:57:56.449Z,50.40
2022-08-17T10:00:33.293Z,50.00
2022-08-17T10:03:18.484Z,50.12
2022-08-17T10:06:21.738Z,49.90
2022-08-17T10:09:09.103Z,49.96
2022-08-17T10:12:11.728Z,49.81
2022-08-17T10:14:53.629Z,49.83
2022-08-17T10:17:30.026Z,49.27
2022-08-17T10:20:13.335Z,49.50
2022-08-17T10:23:09.470Z,49.52
2022-08-17T10:26:13.423Z,49.13
2022-08-17T10:28:54.157Z,49.19
2022-08-17T10:31:35.478Z,49.33
2022-08-17T10:34:19.422Z,48.88
2022-08-17T10:37:00.376Z,49.02
2022-08-17T10:39:52.739Z,48.63
2022-08-17T10:42:50.814Z,47.70
2022-08-17T10:45:48.860Z,47.76
2022-08-17T10:48:39.264Z,48.41
2022-08-17T10:51:39.388Z,48.52
2022-08-17T10:54:26.133Z,48.55
2022-08-17T11:03:11.942Z,47.90
2022-08-17T11:41:36.571Z,45.27
2022-08-17T11:45:46.422Z,45.38
2022-08-17T12:33:31.882Z,44.54
2022-08-17T12:34:14.990Z,44.59
2022-08-17T12:37:50.997Z,43.73
2022-08-17T12:47:53.204Z,42.23
2022-08-17T12:58:29.724Z,41.60
2022-08-17T13:08:43.360Z,40.62
2022-08-17T13:21:11.796Z,40.34
2022-08-17T14:03:42.285Z,43.69
2022-08-17T14:06:12.067Z,43.88
2022-08-17T14:10:36.879Z,43.74
2022-08-17T14:12:27.184Z,43.73
2022-08-17T14:15:54.731Z,44.02
2022-08-17T14:18:55.529Z,44.04
2022-08-17T14:21:20.200Z,44.29
2022-08-17T14:23:57.793Z,44.18
2022-08-17T14:26:28.203Z,44.16
2022-08-17T14:29:15.665Z,44.40
2022-08-17T14:32:01.819Z,44.62
2022-08-17T14:34:40.356Z,44.77
2022-08-17T14:37:39.258Z,44.90
2022-08-17T14:40:50.001Z,45.24
2022-08-17T14:43:19.971Z,45.07
2022-08-17T14:50:40.653Z,45.54
2022-08-17T14:53:09.982Z,45.75
2022-08-17T14:55:39.315Z,45.69
2022-08-17T14:58:07.037Z,45.32
2022-08-17T15:00:34.278Z,45.43
2022-08-17T15:03:02.152Z,45.27
2022-08-17T15:05:32.945Z,44.88
2022-08-17T15:08:01.133Z,44.64
2022-08-17T15:10:29.482Z,44.65
2022-08-17T15:12:57.492Z,44.80
2022-08-17T15:15:24.715Z,44.46
2022-08-17T15:17:51.825Z,44.58
2022-08-17T15:20:23.032Z,44.79
2022-08-17T15:22:54.778Z,44.66
2022-08-17T15:25:23.026Z,44.73
2022-08-17T15:27:50.421Z,44.15
2022-08-17T15:30:17.784Z,44.32
2022-08-17T15:32:50.791Z,44.07
2022-08-17T15:35:28.286Z,44.40
2022-08-17T15:37:57.907Z,44.30
2022-08-17T15:40:24.879Z,44.61
2022-08-17T15:42:52.178Z,44.64
2022-08-17T15:45:26.444Z,44.50
2022-08-17T15:47:53.976Z,45.04
2022-08-17T15:50:20.850Z,45.19
2022-08-17T15:52:54.344Z,45.19
2022-08-17T15:55:24.169Z,45.14
2022-08-17T15:57:51.549Z,45.07
2022-08-17T16:00:19.758Z,45.25
2022-08-17T16:03:44.508Z,45.49
2022-08-17T16:05:34.929Z,45.42
2022-08-17T16:08:02.209Z,45.44
2022-08-17T16:10:35.257Z,45.48
2022-08-17T16:13:03.898Z,45.70
2022-08-17T16:15:31.513Z,45.72
2022-08-17T16:17:58.477Z,45.77
2022-08-17T16:20:25.579Z,45.88
2022-08-17T16:22:53.179Z,45.95
2022-08-17T16:25:51.974Z,45.98
2022-08-17T16:28:16.395Z,45.93
2022-08-17T16:30:43.645Z,45.87
2022-08-17T16:33:11.902Z,46.07
2022-08-17T16:35:39.123Z,46.22
2022-08-17T16:38:07.294Z,46.30
2022-08-17T16:40:35.908Z,46.56
2022-08-17T16:43:09.916Z,46.57
2022-08-17T16:45:39.583Z,46.72
2022-08-17T16:48:07.352Z,46.87
2022-08-17T16:50:35.757Z,46.80
2022-08-17T16:53:09.838Z,46.87
2022-08-17T16:55:37.771Z,46.99
2022-08-17T16:58:30.705Z,46.99
2022-08-17T17:00:58.850Z,46.97
2022-08-17T17:14:58.881Z,47.60
2022-08-17T17:18:10.045Z,47.78
2022-08-17T17:21:25.798Z,47.89
2022-08-17T17:24:54.895Z,48.13
2022-08-17T17:28:15.278Z,48.31
2022-08-17T17:31:18.635Z,48.25
2022-08-17T17:33:52.421Z,48.43
2022-08-17T17:36:23.227Z,48.31
2022-08-17T17:39:19.660Z,48.57
2022-08-17T17:41:57.564Z,48.71
2022-08-17T17:45:33.329Z,48.81
2022-08-17T17:48:00.612Z,48.84
2022-08-17T17:51:16.518Z,48.88
2022-08-17T17:54:21.944Z,49.09
2022-08-17T17:57:31.468Z,49.22
2022-08-17T18:00:46.729Z,49.21
2022-08-17T18:03:43.043Z,49.49
2022-08-17T18:06:46.079Z,49.63
2022-08-17T18:09:51.963Z,49.42
2022-08-17T18:12:44.317Z,49.65
2022-08-17T18:16:42.075Z,49.56
2022-08-17T18:21:13.206Z,49.81
2022-08-17T18:31:31.071Z,50.22
2022-08-17T18:34:58.705Z,50.39
2022-08-17T18:42:42.423Z,50.74
2022-08-17T18:45:42.951Z,50.88
2022-08-17T18:49:00.479Z,51.19
2022-08-17T18:52:42.966Z,51.39
2022-08-17T18:55:32.088Z,51.56
2022-08-17T18:58:24.279Z,51.73
2022-08-17T19:01:21.191Z,51.94
2022-08-17T19:03:53.812Z,52.04
2022-08-17T19:27:20.673Z,53.04
2022-08-17T19:29:51.463Z,52.80
2022-08-17T19:29:57.363Z,53.11
2022-08-17T19:32:31.334Z,53.06
2022-08-17T19:35:02.691Z,53.26
2022-08-17T19:37:54.058Z,53.52
2022-08-17T19:40:54.844Z,53.68
2022-08-17T19:43:55.147Z,53.73
2022-08-17T19:46:42.965Z,54.17
2022-08-17T19:49:23.484Z,54.25
2022-08-17T19:52:21.691Z,54.35
2022-08-17T19:55:19.850Z,54.52
2022-08-17T19:58:25.641Z,54.57
2022-08-17T20:00:53.919Z,54.63
2022-08-17T20:03:29.791Z,54.51
2022-08-17T20:06:15.308Z,54.58
2022-08-17T20:08:58.313Z,54.74
2022-08-17T20:11:44.859Z,54.85
2022-08-17T20:14:20.116Z,54.87
2022-08-17T20:16:47.718Z,54.89
2022-08-17T20:19:43.257Z,55.00
2022-08-17T20:22:17.980Z,55.22
2022-08-17T20:25:01.227Z,55.36
2022-08-17T20:27:33.730Z,55.54
2022-08-17T20:30:04.091Z,55.69
2022-08-17T20:32:37.538Z,55.91
2022-08-17T20:35:37.924Z,56.03
2022-08-17T20:38:10.559Z,56.29
2022-08-17T20:41:00.616Z,56.44
2022-08-17T20:43:33.913Z,56.57
2022-08-17T20:46:09.906Z,56.66
2022-08-17T20:48:43.182Z,56.77
2022-08-17T20:51:29.273Z,56.75
2022-08-17T20:54:06.053Z,56.79
2022-08-17T20:56:59.907Z,56.86
2022-08-17T20:59:28.098Z,57.13
2022-08-17T21:02:17.539Z,57.36
2022-08-17T21:04:49.715Z,57.22
2022-08-17T21:07:28.829Z,57.38
2022-08-17T21:10:13.990Z,57.49
2022-08-17T21:12:47.893Z,57.67
2022-08-17T21:15:43.718Z,57.71
2022-08-17T21:18:48.569Z,57.65
2022-08-17T21:21:17.579Z,57.77
2022-08-17T21:23:47.749Z,57.84
2022-08-17T21:26:30.969Z,57.95
2022-08-17T21:29:01.713Z,58.15
2022-08-17T21:32:03.707Z,58.21
2022-08-17T21:34:42.007Z,58.29
2022-08-17T21:37:29.484Z,58.42
2022-08-17T21:40:19.198Z,58.42
2022-08-17T21:43:25.248Z,58.49
2022-08-17T21:46:09.798Z,58.56
2022-08-17T21:48:48.130Z,58.81
2022-08-17T21:51:26.965Z,58.88
2022-08-17T21:53:59.595Z,59.01
2022-08-17T21:56:34.290Z,58.98
2022-08-17T21:59:08.151Z,59.00
2022-08-17T22:01:39.668Z,59.05
2022-08-17T22:04:24.266Z,59.10
2022-08-17T22:06:57.041Z,58.97
2022-08-17T22:09:42.779Z,59.07
2022-08-17T22:12:23.747Z,59.26
2022-08-17T22:15:03.659Z,59.20
2022-08-17T22:17:36.058Z,59.31
2022-08-17T22:20:13.863Z,59.34
2022-08-17T22:23:08.619Z,59.41
2022-08-17T22:25:40.168Z,59.54
2022-08-17T22:28:10.512Z,59.84
2022-08-17T22:31:00.565Z,60.05
2022-08-17T22:33:49.356Z,60.29
2022-08-17T22:36:38.626Z,60.31
2022-08-17T22:39:08.505Z,60.67
2022-08-17T22:41:35.320Z,60.84
2022-08-17T22:44:14.713Z,60.76
2022-08-17T22:46:48.715Z,60.75
2022-08-17T22:49:53.608Z,61.06
2022-08-17T22:52:21.277Z,61.12
2022-08-17T22:55:09.455Z,61.05
2022-08-17T22:57:55.133Z,61.21
2022-08-17T23:00:31.080Z,61.36
2022-08-17T23:03:11.827Z,61.40
2022-08-17T23:05:45.894Z,61.45
2022-08-17T23:08:20.564Z,61.45
2022-08-17T23:10:48.212Z,61.59
2022-08-17T23:13:15.362Z,61.46
2022-08-17T23:15:42.522Z,61.52
2022-08-17T23:18:09.961Z,61.63
2022-08-17T23:20:40.013Z,61.49
2022-08-17T23:23:08.568Z,61.47
2022-08-17T23:25:36.516Z,61.59
2022-08-17T23:28:06.156Z,61.78
2022-08-17T23:30:38.905Z,61.95
2022-08-17T23:33:09.927Z,62.20
2022-08-17T23:35:40.578Z,62.50
2022-08-17T23:38:10.300Z,62.75
2022-08-17T23:40:39.612Z,62.82
2022-08-17T23:43:17.591Z,63.35
2022-08-17T23:45:59.770Z,63.64
2022-08-17T23:48:28.632Z,63.90
2022-08-17T23:51:08.734Z,64.08
2022-08-17T23:53:41.417Z,64.32
2022-08-17T23:56:11.211Z,64.33
2022-08-17T23:58:43.155Z,64.33
